sensor_id;sensor_type;location;lat;lon;timestamp;pressure;altitude;pressure_sealevel;temperature
20490;BMP280;10403;54.092;12.122;2024-03-07T00:00:13;103130.28;;;5.67
20490;BMP280;10403;54.092;12.122;2024-03-07T00:02:49;103146.94;;;5.72
20490;BMP280;10403;54.092;12.122;2024-03-07T00:05:20;103145.16;;;5.71
20490;BMP280;10403;54.092;12.122;2024-03-07T00:07:48;103139.97;;;5.71
20490;BMP280;10403;54.092;12.122;2024-03-07T00:10:17;103141.75;;;5.72
20490;BMP280;10403;54.092;12.122;2024-03-07T00:12:44;103144.28;;;5.70
20490;BMP280;10403;54.092;12.122;2024-03-07T00:15:13;103128.50;;;5.66
20490;BMP280;10403;54.092;12.122;2024-03-07T00:17:41;103139.16;;;5.72
20490;BMP280;10403;54.092;12.122;2024-03-07T00:20:09;103147.09;;;5.75
20490;BMP280;10403;54.092;12.122;2024-03-07T00:22:42;103150.34;;;5.71
20490;BMP280;10403;54.092;12.122;2024-03-07T00:25:10;103145.16;;;5.71
20490;BMP280;10403;54.092;12.122;2024-03-07T00:27:38;103145.31;;;5.74
20490;BMP280;10403;54.092;12.122;2024-03-07T00:30:06;103147.16;;;5.76
20490;BMP280;10403;54.092;12.122;2024-03-07T00:32:36;103133.00;;;5.70
20490;BMP280;10403;54.092;12.122;2024-03-07T00:35:07;103132.31;;;5.74
20490;BMP280;10403;54.092;12.122;2024-03-07T00:37:36;103129.56;;;5.71
20490;BMP280;10403;54.092;12.122;2024-03-07T00:40:04;103127.94;;;5.73
20490;BMP280;10403;54.092;12.122;2024-03-07T00:42:32;103134.03;;;5.73
20490;BMP280;10403;54.092;12.122;2024-03-07T00:44:59;103113.44;;;5.58
20490;BMP280;10403;54.092;12.122;2024-03-07T00:47:26;103129.16;;;5.62
20490;BMP280;10403;54.092;12.122;2024-03-07T00:49:53;103125.91;;;5.66
20490;BMP280;10403;54.092;12.122;2024-03-07T00:52:21;103134.78;;;5.71
20490;BMP280;10403;54.092;12.122;2024-03-07T00:54:48;103139.22;;;5.73
20490;BMP280;10403;54.092;12.122;2024-03-07T00:57:16;103122.69;;;5.71
20490;BMP280;10403;54.092;12.122;2024-03-07T00:59:44;103134.34;;;5.81
20490;BMP280;10403;54.092;12.122;2024-03-07T01:02:12;103118.84;;;5.82
20490;BMP280;10403;54.092;12.122;2024-03-07T01:04:40;103130.25;;;5.86
20490;BMP280;10403;54.092;12.122;2024-03-07T01:07:07;103119.88;;;5.86
20490;BMP280;10403;54.092;12.122;2024-03-07T01:09:34;103106.28;;;5.72
20490;BMP280;10403;54.092;12.122;2024-03-07T01:12:02;103109.09;;;5.77
20490;BMP280;10403;54.092;12.122;2024-03-07T01:14:33;103108.72;;;5.88
20490;BMP280;10403;54.092;12.122;2024-03-07T01:17:00;103093.59;;;5.80
20490;BMP280;10403;54.092;12.122;2024-03-07T01:19:28;103109.47;;;5.86
20490;BMP280;10403;54.092;12.122;2024-03-07T01:21:55;103115.56;;;5.86
20490;BMP280;10403;54.092;12.122;2024-03-07T01:24:22;103113.03;;;5.88
20490;BMP280;10403;54.092;12.122;2024-03-07T01:26:50;103098.69;;;5.77
20490;BMP280;10403;54.092;12.122;2024-03-07T01:29:17;103110.28;;;5.85
20490;BMP280;10403;54.092;12.122;2024-03-07T01:31:45;103109.19;;;5.80
20490;BMP280;10403;54.092;12.122;2024-03-07T01:34:12;103104.78;;;5.77
20490;BMP280;10403;54.092;12.122;2024-03-07T01:36:39;103099.38;;;5.73
20490;BMP280;10403;54.092;12.122;2024-03-07T01:39:07;103109.34;;;5.83
20490;BMP280;10403;54.092;12.122;2024-03-07T01:41:34;103111.19;;;5.85
20490;BMP280;10403;54.092;12.122;2024-03-07T01:44:02;103090.19;;;5.81
20490;BMP280;10403;54.092;12.122;2024-03-07T01:46:29;103106.94;;;5.87
20490;BMP280;10403;54.092;12.122;2024-03-07T01:48:58;103107.97;;;5.91
20490;BMP280;10403;54.092;12.122;2024-03-07T01:51:26;103107.97;;;5.91
20490;BMP280;10403;54.092;12.122;2024-03-07T01:53:55;103119.94;;;5.87
20490;BMP280;10403;54.092;12.122;2024-03-07T01:56:22;103107.63;;;5.83
20490;BMP280;10403;54.092;12.122;2024-03-07T01:58:53;103112.75;;;5.82
20490;BMP280;10403;54.092;12.122;2024-03-07T02:01:21;103100.59;;;5.81
20490;BMP280;10403;54.092;12.122;2024-03-07T02:03:50;103099.69;;;5.80
20490;BMP280;10403;54.092;12.122;2024-03-07T02:06:18;103107.69;;;5.85
20490;BMP280;10403;54.092;12.122;2024-03-07T02:08:45;103106.75;;;5.83
20490;BMP280;10403;54.092;12.122;2024-03-07T02:11:13;103085.63;;;5.75
20490;BMP280;10403;54.092;12.122;2024-03-07T02:13:41;103104.16;;;5.83
20490;BMP280;10403;54.092;12.122;2024-03-07T02:16:08;103100.59;;;5.81
20490;BMP280;10403;54.092;12.122;2024-03-07T02:18:37;103108.38;;;5.81
20490;BMP280;10403;54.092;12.122;2024-03-07T02:21:08;103089.13;;;5.76
20490;BMP280;10403;54.092;12.122;2024-03-07T02:23:39;103099.63;;;5.79
20490;BMP280;10403;54.092;12.122;2024-03-07T02:26:08;103095.31;;;5.79
20490;BMP280;10403;54.092;12.122;2024-03-07T02:28:35;103097.97;;;5.81
20490;BMP280;10403;54.092;12.122;2024-03-07T02:31:03;103096.34;;;5.83
20490;BMP280;10403;54.092;12.122;2024-03-07T02:33:30;103091.16;;;5.83
20490;BMP280;10403;54.092;12.122;2024-03-07T02:35:59;103095.47;;;5.82
20490;BMP280;10403;54.092;12.122;2024-03-07T02:38:27;103090.13;;;5.79
20490;BMP280;10403;54.092;12.122;2024-03-07T02:40:54;103090.06;;;5.78
20490;BMP280;10403;54.092;12.122;2024-03-07T02:43:22;103093.50;;;5.77
20490;BMP280;10403;54.092;12.122;2024-03-07T02:45:49;103088.31;;;5.77
20490;BMP280;10403;54.092;12.122;2024-03-07T02:48:17;103089.13;;;5.76
20490;BMP280;10403;54.092;12.122;2024-03-07T02:50:46;103091.66;;;5.74
20490;BMP280;10403;54.092;12.122;2024-03-07T02:53:14;103082.06;;;5.73
20490;BMP280;10403;54.092;12.122;2024-03-07T02:55:42;103086.53;;;5.76
20490;BMP280;10403;54.092;12.122;2024-03-07T02:58:09;103069.91;;;5.72
20490;BMP280;10403;54.092;12.122;2024-03-07T03:00:37;103073.41;;;5.73
20490;BMP280;10403;54.092;12.122;2024-03-07T03:03:04;103081.44;;;5.79
20490;BMP280;10403;54.092;12.122;2024-03-07T03:05:31;103080.44;;;5.75
20490;BMP280;10403;54.092;12.122;2024-03-07T03:07:59;103073.53;;;5.76
20490;BMP280;10403;54.092;12.122;2024-03-07T03:10:27;103084.25;;;5.83
20490;BMP280;10403;54.092;12.122;2024-03-07T03:12:58;103081.72;;;5.85
20490;BMP280;10403;54.092;12.122;2024-03-07T03:15:27;103084.25;;;5.83
20490;BMP280;10403;54.092;12.122;2024-03-07T03:17:55;103084.31;;;5.85
20490;BMP280;10403;54.092;12.122;2024-03-07T03:20:25;103070.28;;;5.81
20490;BMP280;10403;54.092;12.122;2024-03-07T03:22:54;103075.72;;;5.86
20490;BMP280;10403;54.092;12.122;2024-03-07T03:25:41;103072.00;;;5.81
20490;BMP280;10403;54.092;12.122;2024-03-07T03:28:09;103077.41;;;5.85
20490;BMP280;10403;54.092;12.122;2024-03-07T03:30:39;103069.56;;;5.84
20490;BMP280;10403;54.092;12.122;2024-03-07T03:33:08;103066.41;;;5.91
20490;BMP280;10403;54.092;12.122;2024-03-07T03:35:39;103067.78;;;5.83
20490;BMP280;10403;54.092;12.122;2024-03-07T03:38:08;103079.25;;;5.88
20490;BMP280;10403;54.092;12.122;2024-03-07T03:40:35;103074.00;;;5.86
20490;BMP280;10403;54.092;12.122;2024-03-07T03:43:03;103068.72;;;5.85
20490;BMP280;10403;54.092;12.122;2024-03-07T03:45:30;103071.03;;;5.79
20490;BMP280;10403;54.092;12.122;2024-03-07T03:48:01;103057.06;;;5.75
20490;BMP280;10403;54.092;12.122;2024-03-07T03:50:29;103068.59;;;5.82
20490;BMP280;10403;54.092;12.122;2024-03-07T03:52:57;103070.22;;;5.80
20490;BMP280;10403;54.092;12.122;2024-03-07T03:55:24;103079.78;;;5.81
20490;BMP280;10403;54.092;12.122;2024-03-07T03:57:52;103078.03;;;5.80
20490;BMP280;10403;54.092;12.122;2024-03-07T04:00:20;103072.81;;;5.80
20490;BMP280;10403;54.092;12.122;2024-03-07T04:02:50;103066.66;;;5.78
20490;BMP280;10403;54.092;12.122;2024-03-07T04:05:20;103063.97;;;5.75
20490;BMP280;10403;54.092;12.122;2024-03-07T04:07:48;103061.38;;;5.75
20490;BMP280;10403;54.092;12.122;2024-03-07T04:10:17;103076.38;;;5.82
20490;BMP280;10403;54.092;12.122;2024-03-07T04:12:45;103079.06;;;5.83
20490;BMP280;10403;54.092;12.122;2024-03-07T04:15:15;103075.56;;;5.83
20490;BMP280;10403;54.092;12.122;2024-03-07T04:17:46;103081.72;;;5.85
20490;BMP280;10403;54.092;12.122;2024-03-07T04:20:15;103076.53;;;5.85
20490;BMP280;10403;54.092;12.122;2024-03-07T04:22:46;103072.97;;;5.83
20490;BMP280;10403;54.092;12.122;2024-03-07T04:25:14;103069.56;;;5.84
20490;BMP280;10403;54.092;12.122;2024-03-07T04:27:42;103072.22;;;5.85
20490;BMP280;10403;54.092;12.122;2024-03-07T04:30:10;103069.56;;;5.84
20490;BMP280;10403;54.092;12.122;2024-03-07T04:32:40;103074.75;;;5.84
20490;BMP280;10403;54.092;12.122;2024-03-07T04:35:09;103071.31;;;5.85
20490;BMP280;10403;54.092;12.122;2024-03-07T04:37:41;103068.66;;;5.83
20490;BMP280;10403;54.092;12.122;2024-03-07T04:40:09;103067.78;;;5.83
20490;BMP280;10403;54.092;12.122;2024-03-07T04:42:49;103068.66;;;5.83
20490;BMP280;10403;54.092;12.122;2024-03-07T04:45:18;103072.97;;;5.83
20490;BMP280;10403;54.092;12.122;2024-03-07T04:47:46;103072.97;;;5.83
20490;BMP280;10403;54.092;12.122;2024-03-07T04:50:16;103070.28;;;5.81
20490;BMP280;10403;54.092;12.122;2024-03-07T04:52:47;103057.00;;;5.74
20490;BMP280;10403;54.092;12.122;2024-03-07T04:55:19;103067.44;;;5.75
20490;BMP280;10403;54.092;12.122;2024-03-07T04:57:46;103064.06;;;5.78
20490;BMP280;10403;54.092;12.122;2024-03-07T05:00:15;103066.81;;;5.81
20490;BMP280;10403;54.092;12.122;2024-03-07T05:02:47;103067.63;;;5.80
20490;BMP280;10403;54.092;12.122;2024-03-07T05:05:15;103061.38;;;5.75
20490;BMP280;10403;54.092;12.122;2024-03-07T05:07:51;103064.06;;;5.78
20490;BMP280;10403;54.092;12.122;2024-03-07T05:10:18;103064.06;;;5.78
20490;BMP280;10403;54.092;12.122;2024-03-07T05:12:46;103063.97;;;5.75
20490;BMP280;10403;54.092;12.122;2024-03-07T05:15:13;103064.06;;;5.78
20490;BMP280;10403;54.092;12.122;2024-03-07T05:17:41;103054.41;;;5.74
20490;BMP280;10403;54.092;12.122;2024-03-07T05:20:11;103075.56;;;5.83
20490;BMP280;10403;54.092;12.122;2024-03-07T05:22:40;103057.38;;;5.83
20490;BMP280;10403;54.092;12.122;2024-03-07T05:25:12;103069.81;;;5.90
20490;BMP280;10403;54.092;12.122;2024-03-07T05:27:39;103029.16;;;5.71
20490;BMP280;10403;54.092;12.122;2024-03-07T05:30:08;103048.84;;;5.85
20490;BMP280;10403;54.092;12.122;2024-03-07T05:32:39;103069.81;;;5.90
20490;BMP280;10403;54.092;12.122;2024-03-07T05:35:07;103070.72;;;5.90
20490;BMP280;10403;54.092;12.122;2024-03-07T05:37:35;103071.47;;;5.88
20490;BMP280;10403;54.092;12.122;2024-03-07T05:40:02;103075.72;;;5.86
20490;BMP280;10403;54.092;12.122;2024-03-07T05:42:31;103079.34;;;5.89
20490;BMP280;10403;54.092;12.122;2024-03-07T05:44:59;103071.31;;;5.85
20490;BMP280;10403;54.092;12.122;2024-03-07T05:47:26;103085.56;;;5.93
20490;BMP280;10403;54.092;12.122;2024-03-07T05:49:54;103092.69;;;5.97
20490;BMP280;10403;54.092;12.122;2024-03-07T05:52:21;103087.50;;;5.99
20490;BMP280;10403;54.092;12.122;2024-03-07T05:54:49;103090.06;;;5.97
20490;BMP280;10403;54.092;12.122;2024-03-07T05:57:16;103084.03;;;5.98
20490;BMP280;10403;54.092;12.122;2024-03-07T05:59:43;103075.31;;;5.96
20490;BMP280;10403;54.092;12.122;2024-03-07T06:02:11;103087.72;;;6.03
20490;BMP280;10403;54.092;12.122;2024-03-07T06:04:43;103088.69;;;6.05
20490;BMP280;10403;54.092;12.122;2024-03-07T06:07:11;103082.44;;;6.02
20490;BMP280;10403;54.092;12.122;2024-03-07T06:09:39;103073.63;;;5.98
20490;BMP280;10403;54.092;12.122;2024-03-07T06:12:07;103097.16;;;6.01
20490;BMP280;10403;54.092;12.122;2024-03-07T06:14:49;103081.13;;;5.90
20490;BMP280;10403;54.092;12.122;2024-03-07T06:17:17;103096.97;;;5.97
20490;BMP280;10403;54.092;12.122;2024-03-07T06:19:48;103092.53;;;5.94
20490;BMP280;10403;54.092;12.122;2024-03-07T06:22:15;103080.16;;;5.88
20490;BMP280;10403;54.092;12.122;2024-03-07T06:24:43;103096.09;;;5.96
20490;BMP280;10403;54.092;12.122;2024-03-07T06:27:10;103085.88;;;6.01
20490;BMP280;10403;54.092;12.122;2024-03-07T06:29:53;103095.38;;;6.00
20490;BMP280;10403;54.092;12.122;2024-03-07T06:32:20;103091.78;;;5.97
20490;BMP280;10403;54.092;12.122;2024-03-07T06:34:49;103097.88;;;5.97
20490;BMP280;10403;54.092;12.122;2024-03-07T06:37:17;103098.78;;;5.99
20490;BMP280;10403;54.092;12.122;2024-03-07T06:39:46;103094.56;;;6.01
20490;BMP280;10403;54.092;12.122;2024-03-07T06:42:14;103100.66;;;6.02
20490;BMP280;10403;54.092;12.122;2024-03-07T06:44:42;103062.50;;;5.81
20490;BMP280;10403;54.092;12.122;2024-03-07T06:47:10;103094.41;;;5.98
20490;BMP280;10403;54.092;12.122;2024-03-07T06:49:37;103095.28;;;5.97
20490;BMP280;10403;54.092;12.122;2024-03-07T06:52:07;103095.94;;;5.93
20490;BMP280;10403;54.092;12.122;2024-03-07T06:54:35;103106.59;;;5.99
20490;BMP280;10403;54.092;12.122;2024-03-07T06:57:03;103095.06;;;5.92
20490;BMP280;10403;54.092;12.122;2024-03-07T06:59:30;103109.91;;;5.95
20490;BMP280;10403;54.092;12.122;2024-03-07T07:01:58;103104.72;;;5.95
20490;BMP280;10403;54.092;12.122;2024-03-07T07:04:26;103102.09;;;5.95
20490;BMP280;10403;54.092;12.122;2024-03-07T07:06:59;103110.88;;;5.97
20490;BMP280;10403;54.092;12.122;2024-03-07T07:09:28;103100.50;;;5.99
20490;BMP280;10403;54.092;12.122;2024-03-07T07:11:55;103108.38;;;6.00
20490;BMP280;10403;54.092;12.122;2024-03-07T07:14:23;103114.47;;;6.01
20490;BMP280;10403;54.092;12.122;2024-03-07T07:16:50;103106.53;;;5.98
20490;BMP280;10403;54.092;12.122;2024-03-07T07:19:18;103113.72;;;6.03
20490;BMP280;10403;54.092;12.122;2024-03-07T07:21:45;103110.28;;;6.04
20490;BMP280;10403;54.092;12.122;2024-03-07T07:24:14;103111.13;;;6.03
20490;BMP280;10403;54.092;12.122;2024-03-07T07:26:41;103107.69;;;6.04
20490;BMP280;10403;54.092;12.122;2024-03-07T07:29:10;103120.94;;;6.10
20490;BMP280;10403;54.092;12.122;2024-03-07T07:31:37;103111.56;;;6.14
20490;BMP280;10403;54.092;12.122;2024-03-07T07:34:05;103118.66;;;6.18
20490;BMP280;10403;54.092;12.122;2024-03-07T07:36:33;103117.81;;;6.19
20490;BMP280;10403;54.092;12.122;2024-03-07T07:39:01;103122.28;;;6.21
20490;BMP280;10403;54.092;12.122;2024-03-07T07:41:28;103112.69;;;6.20
20490;BMP280;10403;54.092;12.122;2024-03-07T07:43:57;103118.16;;;6.26
20490;BMP280;10403;54.092;12.122;2024-03-07T07:46:24;103110.63;;;6.32
20490;BMP280;10403;54.092;12.122;2024-03-07T07:48:54;103110.03;;;6.40
20490;BMP280;10403;54.092;12.122;2024-03-07T07:51:22;103103.19;;;6.42
20490;BMP280;10403;54.092;12.122;2024-03-07T07:53:52;103103.25;;;6.43
20490;BMP280;10403;54.092;12.122;2024-03-07T07:56:21;103076.06;;;6.35
20490;BMP280;10403;54.092;12.122;2024-03-07T07:58:52;103107.47;;;6.62
20490;BMP280;10403;54.092;12.122;2024-03-07T08:01:19;103087.19;;;6.53
20490;BMP280;10403;54.092;12.122;2024-03-07T08:03:47;103095.16;;;6.58
20490;BMP280;10403;54.092;12.122;2024-03-07T08:06:14;103100.72;;;6.67
20490;BMP280;10403;54.092;12.122;2024-03-07T08:08:42;103107.97;;;6.74
20490;BMP280;10403;54.092;12.122;2024-03-07T08:11:09;103094.91;;;6.73
20490;BMP280;10403;54.092;12.122;2024-03-07T08:13:40;103103.00;;;6.80
20490;BMP280;10403;54.092;12.122;2024-03-07T08:16:10;103110.78;;;6.80
20490;BMP280;10403;54.092;12.122;2024-03-07T08:18:38;103104.56;;;6.77
20490;BMP280;10403;54.092;12.122;2024-03-07T08:21:06;103091.16;;;6.66
20490;BMP280;10403;54.092;12.122;2024-03-07T08:23:33;103092.75;;;6.62
20490;BMP280;10403;54.092;12.122;2024-03-07T08:26:01;103120.03;;;6.72
20490;BMP280;10403;54.092;12.122;2024-03-07T08:28:29;103114.69;;;6.69
20490;BMP280;10403;54.092;12.122;2024-03-07T08:30:57;103117.16;;;6.66
20490;BMP280;10403;54.092;12.122;2024-03-07T08:33:26;103102.03;;;6.56
20490;BMP280;10403;54.092;12.122;2024-03-07T08:35:53;103107.19;;;6.54
20490;BMP280;10403;54.092;12.122;2024-03-07T08:38:21;103114.19;;;6.57
20490;BMP280;10403;54.092;12.122;2024-03-07T08:40:48;103121.31;;;6.61
20490;BMP280;10403;54.092;12.122;2024-03-07T08:43:16;103121.16;;;6.58
20490;BMP280;10403;54.092;12.122;2024-03-07T08:45:43;103115.06;;;6.57
20490;BMP280;10403;54.092;12.122;2024-03-07T08:48:11;103106.47;;;6.58
20490;BMP280;10403;54.092;12.122;2024-03-07T08:50:40;103107.94;;;6.52
20490;BMP280;10403;54.092;12.122;2024-03-07T08:53:08;103118.69;;;6.61
20490;BMP280;10403;54.092;12.122;2024-03-07T08:55:36;103110.97;;;6.62
20490;BMP280;10403;54.092;12.122;2024-03-07T08:58:05;103109.34;;;6.66
20490;BMP280;10403;54.092;12.122;2024-03-07T09:00:35;103114.69;;;6.69
20490;BMP280;10403;54.092;12.122;2024-03-07T09:03:06;103108.31;;;6.61
20490;BMP280;10403;54.092;12.122;2024-03-07T09:05:38;103089.84;;;6.55
20490;BMP280;10403;54.092;12.122;2024-03-07T09:08:06;103081.78;;;6.49
20490;BMP280;10403;54.092;12.122;2024-03-07T09:10:34;103079.03;;;6.44
20490;BMP280;10403;54.092;12.122;2024-03-07T09:13:02;103107.84;;;6.71
20490;BMP280;10403;54.092;12.122;2024-03-07T09:15:30;103118.59;;;6.80
20490;BMP280;10403;54.092;12.122;2024-03-07T09:17:57;103114.34;;;6.82
20490;BMP280;10403;54.092;12.122;2024-03-07T09:20:26;103110.78;;;6.80
20490;BMP280;10403;54.092;12.122;2024-03-07T09:22:54;103115.47;;;6.89
20490;BMP280;10403;54.092;12.122;2024-03-07T09:25:23;103119.97;;;6.93
20490;BMP280;10403;54.092;12.122;2024-03-07T09:27:53;103115.75;;;6.96
20490;BMP280;10403;54.092;12.122;2024-03-07T09:30:22;103114.13;;;6.98
20490;BMP280;10403;54.092;12.122;2024-03-07T09:32:56;103116.84;;;7.01
20490;BMP280;10403;54.092;12.122;2024-03-07T09:35:24;103107.25;;;7.00
20490;BMP280;10403;54.092;12.122;2024-03-07T09:37:52;103101.91;;;6.97
20490;BMP280;10403;54.092;12.122;2024-03-07T09:40:22;103096.72;;;6.97
20490;BMP280;10403;54.092;12.122;2024-03-07T09:42:56;103089.72;;;6.96
20490;BMP280;10403;54.092;12.122;2024-03-07T09:45:30;103112.81;;;7.10
20490;BMP280;10403;54.092;12.122;2024-03-07T09:48:00;103102.28;;;7.06
20490;BMP280;10403;54.092;12.122;2024-03-07T09:50:29;103101.69;;;7.14
20490;BMP280;10403;54.092;12.122;2024-03-07T09:52:58;103091.50;;;7.20
20490;BMP280;10403;54.092;12.122;2024-03-07T09:55:27;103089.03;;;7.23
20490;BMP280;10403;54.092;12.122;2024-03-07T09:57:58;103099.00;;;7.34
20490;BMP280;10403;54.092;12.122;2024-03-07T10:00:27;103099.94;;;7.36
20490;BMP280;10403;54.092;12.122;2024-03-07T10:03:06;103075.44;;;7.31
20490;BMP280;10403;54.092;12.122;2024-03-07T10:05:35;103096.06;;;7.49
20490;BMP280;10403;54.092;12.122;2024-03-07T10:08:05;103041.16;;;7.19
20490;BMP280;10403;54.092;12.122;2024-03-07T10:10:35;103081.19;;;7.47
20490;BMP280;10403;54.092;12.122;2024-03-07T10:13:03;103058.31;;;7.38
20490;BMP280;10403;54.092;12.122;2024-03-07T10:15:33;103091.22;;;7.60
20490;BMP280;10403;54.092;12.122;2024-03-07T10:18:02;103089.63;;;7.63
20490;BMP280;10403;54.092;12.122;2024-03-07T10:20:30;103048.13;;;7.44
20490;BMP280;10403;54.092;12.122;2024-03-07T10:22:58;103074.91;;;7.65
20490;BMP280;10403;54.092;12.122;2024-03-07T10:25:26;103089.28;;;7.78
20490;BMP280;10403;54.092;12.122;2024-03-07T10:27:57;103077.97;;;7.77
20490;BMP280;10403;54.092;12.122;2024-03-07T10:30:27;102868.28;;;6.65
20490;BMP280;10403;54.092;12.122;2024-03-07T10:32:57;103083.72;;;7.93
20490;BMP280;10403;54.092;12.122;2024-03-07T10:35:27;103061.69;;;7.85
20490;BMP280;10403;54.092;12.122;2024-03-07T10:37:56;103082.31;;;8.02
20490;BMP280;10403;54.092;12.122;2024-03-07T10:40:28;103083.19;;;8.03
20490;BMP280;10403;54.092;12.122;2024-03-07T10:42:58;103084.34;;;8.11
20490;BMP280;10403;54.092;12.122;2024-03-07T10:45:34;103029.63;;;7.87
20490;BMP280;10403;54.092;12.122;2024-03-07T10:48:11;103084.69;;;8.22
20490;BMP280;10403;54.092;12.122;2024-03-07T10:59:41;103063.31;;;8.32
20490;BMP280;10403;54.092;12.122;2024-03-07T11:02:24;103053.63;;;8.29
20490;BMP280;10403;54.092;12.122;2024-03-07T11:04:59;103055.25;;;8.26
20490;BMP280;10403;54.092;12.122;2024-03-07T11:07:28;103052.75;;;8.29
20490;BMP280;10403;54.092;12.122;2024-03-07T11:09:57;103068.78;;;8.39
20490;BMP280;10403;54.092;12.122;2024-03-07T11:12:26;103005.94;;;8.06
20490;BMP280;10403;54.092;12.122;2024-03-07T11:14:57;102970.59;;;7.88
20490;BMP280;10403;54.092;12.122;2024-03-07T11:17:26;103038.00;;;8.29
20490;BMP280;10403;54.092;12.122;2024-03-07T11:19:54;102995.75;;;8.14
20490;BMP280;10403;54.092;12.122;2024-03-07T11:22:31;103047.91;;;8.39
20490;BMP280;10403;54.092;12.122;2024-03-07T11:25:05;103022.72;;;8.40
20490;BMP280;10403;54.092;12.122;2024-03-07T11:27:38;103054.59;;;8.58
20490;BMP280;10403;54.092;12.122;2024-03-07T11:30:08;103057.31;;;8.61
20490;BMP280;10403;54.092;12.122;2024-03-07T11:32:37;103002.69;;;8.39
20490;BMP280;10403;54.092;12.122;2024-03-07T11:35:12;103051.44;;;8.68
20490;BMP280;10403;54.092;12.122;2024-03-07T11:37:44;103030.28;;;8.59
20490;BMP280;10403;54.092;12.122;2024-03-07T11:42:48;103048.88;;;8.70
20490;BMP280;10403;54.092;12.122;2024-03-07T11:45:19;103026.94;;;8.65
20490;BMP280;10403;54.092;12.122;2024-03-07T11:47:58;103019.03;;;8.62
20490;BMP280;10403;54.092;12.122;2024-03-07T11:50:36;103013.00;;;8.64
20490;BMP280;10403;54.092;12.122;2024-03-07T11:53:08;102981.31;;;8.50
20490;BMP280;10403;54.092;12.122;2024-03-07T11:55:40;103023.97;;;8.81
20490;BMP280;10403;54.092;12.122;2024-03-07T11:58:18;102992.25;;;8.67
20490;BMP280;10403;54.092;12.122;2024-03-07T12:00:51;103026.84;;;8.90
20490;BMP280;10403;54.092;12.122;2024-03-07T12:03:28;102969.38;;;8.59
20490;BMP280;10403;54.092;12.122;2024-03-07T12:05:58;103003.09;;;8.81
20490;BMP280;10403;54.092;12.122;2024-03-07T12:08:27;103002.38;;;8.86
20490;BMP280;10403;54.092;12.122;2024-03-07T12:10:55;102952.81;;;8.58
20490;BMP280;10403;54.092;12.122;2024-03-07T12:13:25;103011.41;;;8.98
20490;BMP280;10403;54.092;12.122;2024-03-07T12:15:55;102993.59;;;8.84
20490;BMP280;10403;54.092;12.122;2024-03-07T12:18:23;102937.00;;;8.53
20490;BMP280;10403;54.092;12.122;2024-03-07T12:20:52;102986.81;;;8.89
20490;BMP280;10403;54.092;12.122;2024-03-07T12:23:26;102971.00;;;8.85
20490;BMP280;10403;54.092;12.122;2024-03-07T12:26:03;102999.31;;;9.01
20490;BMP280;10403;54.092;12.122;2024-03-07T12:28:33;102975.53;;;8.92
20490;BMP280;10403;54.092;12.122;2024-03-07T12:31:03;102995.09;;;9.06
20490;BMP280;10403;54.092;12.122;2024-03-07T12:33:33;102977.47;;;8.98
20490;BMP280;10403;54.092;12.122;2024-03-07T12:36:07;102986.38;;;9.06
20490;BMP280;10403;54.092;12.122;2024-03-07T12:38:37;102983.09;;;9.13
20490;BMP280;10403;54.092;12.122;2024-03-07T12:41:08;102998.97;;;9.19
20490;BMP280;10403;54.092;12.122;2024-03-07T12:43:43;102986.78;;;9.19
20490;BMP280;10403;54.092;12.122;2024-03-07T12:46:11;102980.53;;;9.14
20490;BMP280;10403;54.092;12.122;2024-03-07T12:48:40;102961.38;;;9.14
20490;BMP280;10403;54.092;12.122;2024-03-07T12:51:10;102941.84;;;9.01
20490;BMP280;10403;54.092;12.122;2024-03-07T12:53:43;102962.38;;;9.19
20490;BMP280;10403;54.092;12.122;2024-03-07T12:56:10;102956.22;;;9.17
20490;BMP280;10403;54.092;12.122;2024-03-07T12:58:38;102947.34;;;9.10
20490;BMP280;10403;54.092;12.122;2024-03-07T13:01:10;102974.84;;;9.29
20490;BMP280;10403;54.092;12.122;2024-03-07T13:03:38;102975.00;;;9.35
20490;BMP280;10403;54.092;12.122;2024-03-07T13:06:06;102967.13;;;9.34
20490;BMP280;10403;54.092;12.122;2024-03-07T13:08:34;102860.22;;;8.75
20490;BMP280;10403;54.092;12.122;2024-03-07T13:11:02;102913.13;;;9.01
20490;BMP280;10403;54.092;12.122;2024-03-07T13:13:30;102857.81;;;8.83
20490;BMP280;10403;54.092;12.122;2024-03-07T13:15:58;102918.88;;;9.19
20490;BMP280;10403;54.092;12.122;2024-03-07T13:18:25;102928.72;;;9.30
20490;BMP280;10403;54.092;12.122;2024-03-07T13:20:53;102936.81;;;9.40
20490;BMP280;10403;54.092;12.122;2024-03-07T13:23:21;102913.94;;;9.32
20490;BMP280;10403;54.092;12.122;2024-03-07T13:25:49;102921.78;;;9.32
20490;BMP280;10403;54.092;12.122;2024-03-07T13:28:17;102940.44;;;9.45
20490;BMP280;10403;54.092;12.122;2024-03-07T13:30:47;102927.25;;;9.41
20490;BMP280;10403;54.092;12.122;2024-03-07T13:33:17;102922.00;;;9.41
20490;BMP280;10403;54.092;12.122;2024-03-07T13:35:45;102936.28;;;9.53
20490;BMP280;10403;54.092;12.122;2024-03-07T13:38:14;102939.75;;;9.52
20490;BMP280;10403;54.092;12.122;2024-03-07T13:40:44;102937.78;;;9.44
20490;BMP280;10403;54.092;12.122;2024-03-07T13:43:13;102794.88;;;8.71
20490;BMP280;10403;54.092;12.122;2024-03-07T13:45:49;102907.16;;;9.38
20490;BMP280;10403;54.092;12.122;2024-03-07T13:48:17;102901.81;;;9.34
20490;BMP280;10403;54.092;12.122;2024-03-07T13:50:48;102864.66;;;9.11
20490;BMP280;10403;54.092;12.122;2024-03-07T13:53:30;102903.53;;;9.33
20490;BMP280;10403;54.092;12.122;2024-03-07T13:59:10;102920.50;;;9.49
20490;BMP280;10403;54.092;12.122;2024-03-07T14:02:22;102917.94;;;9.52
20490;BMP280;10403;54.092;12.122;2024-03-07T14:05:56;102880.03;;;9.33
20490;BMP280;10403;54.092;12.122;2024-03-07T14:08:58;102912.84;;;9.56
20490;BMP280;10403;54.092;12.122;2024-03-07T14:12:27;102842.25;;;9.19
20490;BMP280;10403;54.092;12.122;2024-03-07T14:21:48;102900.47;;;9.49
20490;BMP280;10403;54.092;12.122;2024-03-07T14:24:45;102906.50;;;9.47
20490;BMP280;10403;54.092;12.122;2024-03-07T14:27:33;102899.38;;;9.41
20490;BMP280;10403;54.092;12.122;2024-03-07T14:30:27;102900.28;;;9.42
20490;BMP280;10403;54.092;12.122;2024-03-07T14:33:08;102899.38;;;9.41